Latest Weather Observations for Wudinna Airport

IDS60801

Issued at 9:35 am CDT Saturday 1 November 2014 (issued every 30 minutes, with the page automatically refreshed every 10 minutes)

About weather observations | Map of weather stations | Latest weather observations for SA | Other Formats
Station Details ID: 018083 Name: WUDINNA AERO Lat: -33.04 Lon: 135.45 Height: 86.4 m
Data from the previous 72 hours. | See also: Recent months at Wudinna Airport
Date/Time
CDT
Temp
°C
App
Temp
°C
Dew
Point
Rel
Hum
%
Delta-T
°C
Wind Press
QNH
hPa
Press
MSL
hPa
Rain
since 9 am
mm
Dir
 
Spd
km/h
Gust
km/h
Spd
kts
Gust
kts
01/09:30am 15.8 9.7 6.8 55 4.4 SSW 28 37 15 20 1018.7 - 0.0
01/09:00am 15.0 9.8 7.3 60 3.8 SSW 24 35 13 19 1018.2 1018.0 0.6
01/08:30am 13.8 9.1 6.2 60 3.6 SW 20 28 11 15 1017.8 - 0.6
01/08:00am 13.1 9.5 6.7 65 3.1 SW 15 19 8 10 1017.2 - 0.6
01/07:30am 11.1 8.6 6.6 74 2.1 SW 9 13 5 7 1016.8 - 0.6
01/07:00am 9.4 6.8 6.1 80 1.5 W 9 13 5 7 1016.4 - 0.6
01/06:30am 9.4 6.8 6.1 80 1.5 WSW 9 11 5 6 1015.9 - 0.6
01/06:00am 9.9 6.7 7.0 82 1.4 WSW 13 15 7 8 1015.3 1015.0 0.6
01/05:30am 10.8 7.9 8.0 83 1.4 SW 13 17 7 9 1014.7 - 0.6
01/05:00am 12.2 8.7 8.7 79 1.7 SSW 17 20 9 11 1014.2 - 0.6
01/04:30am 13.1 8.8 9.2 77 2.0 SSW 22 32 12 17 1013.6 - 0.6
01/04:00am 13.5 9.4 10.1 80 1.8 SSW 22 30 12 16 1013.2 - 0.6
01/03:30am 13.6 9.3 10.9 84 1.4 SW 24 33 13 18 1013.0 - 0.6
01/03:00am 13.4 10.1 10.9 85 1.3 SW 19 24 10 13 1012.7 1012.4 0.6
01/02:30am 14.0 10.9 11.5 85 1.3 WSW 19 26 10 14 1012.2 - 0.6
01/02:00am 13.6 11.3 11.7 88 1.0 WSW 15 22 8 12 1011.8 - 0.6
01/01:30am 13.3 10.9 11.4 88 1.0 WSW 15 17 8 9 1011.9 - 0.6
01/01:00am 14.0 11.7 11.7 86 1.2 WSW 15 19 8 10 1011.7 - 0.6
01/12:30am 14.1 11.9 12.0 87 1.1 WSW 15 17 8 9 1011.9 - 0.6
01/12:00am 13.8 11.9 11.7 87 1.1 WSW 13 17 7 9 1011.5 1011.2 0.6
 
Date/Time
CDT
Temp
°C
App
Temp
°C
Dew
Point
Rel
Hum
%
Delta-T
°C
Wind Press
QNH
hPa
Press
MSL
hPa
Rain
since 9 am
mm
Dir
 
Spd
km/h
Gust
km/h
Spd
kts
Gust
kts
31/11:30pm 14.2 11.5 11.7 85 1.3 WSW 17 24 9 13 1011.5 - 0.6
31/11:00pm 14.7 12.2 12.2 85 1.4 WSW 17 26 9 14 1010.9 - 0.6
31/10:30pm 14.8 12.4 12.5 86 1.3 WSW 17 20 9 11 1010.8 - 0.6
31/10:00pm 15.0 12.2 12.5 85 1.4 SW 19 24 10 13 1010.1 - 0.6
31/09:30pm 15.2 12.2 12.7 85 1.4 SSW 20 28 11 15 1009.0 - 0.6
31/09:00pm 15.9 11.4 13.9 88 1.1 SSW 30 37 16 20 1008.7 1008.5 0.6
31/08:30pm 16.3 13.1 14.3 88 1.1 SSW 24 30 13 16 1007.6 - 0.6
31/08:00pm 16.4 12.4 14.2 87 1.3 SSW 28 39 15 21 1006.6 - 0.6
31/07:30pm 17.0 14.1 15.0 88 1.2 SSW 24 32 13 17 1006.2 - 0.4
31/07:00pm 18.2 16.9 14.9 81 1.9 SSW 15 22 8 12 1005.4 - 0.2
31/06:30pm 20.5 16.7 12.5 60 4.5 SSW 24 37 13 20 1005.4 - 0.0
31/06:10pm 20.9 16.9 13.1 61 4.5 S 26 46 14 25 1003.8 - 0.0
31/06:00pm 21.4 15.0 12.0 55 5.3 SW 37 52 20 28 1005.1 1004.9 0.0
31/05:30pm 22.2 15.6 12.7 55 5.4 SW 39 48 21 26 1004.8 - 0.0
31/05:26pm 22.0 15.4 12.5 54 5.4 SW 39 50 21 27 1004.8 - 0.0
31/05:00pm 27.5 19.5 8.9 31 10.2 SW 41 52 22 28 1003.5 - 0.0
31/04:30pm 29.1 21.6 6.5 24 12.0 SW 35 50 19 27 1003.1 - 0.0
31/04:00pm 30.1 23.2 7.3 24 12.4 SW 33 48 18 26 1002.5 - 0.0
31/03:30pm 31.1 24.2 4.8 19 13.8 WSW 30 41 16 22 1002.4 - 0.0
31/03:00pm 31.3 25.5 6.4 21 13.5 SW 26 35 14 19 1002.8 1002.6 0.0
31/02:30pm 30.9 25.1 4.6 19 13.7 SW 24 35 13 19 1003.1 - 0.0
31/02:00pm 30.7 25.1 5.2 20 13.4 SW 24 35 13 19 1003.7 - 0.0
31/01:30pm 28.8 22.2 6.2 24 12.0 SW 30 39 16 21 1004.2 - 0.0
31/01:00pm 29.1 22.6 6.5 24 12.0 WSW 30 35 16 19 1004.4 - 0.0
31/12:30pm 30.3 23.8 2.5 17 13.9 W 26 33 14 18 1004.5 - 0.0
31/12:00pm 30.5 24.0 0.0 14 14.7 W 24 33 13 18 1004.4 1004.2 0.0
31/11:30am 29.7 23.2 0.3 15 14.1 WNW 24 28 13 15 1004.2 - 0.0
31/11:00am 29.0 22.8 -0.2 15 13.8 NW 22 30 12 16 1004.2 - 0.0
31/10:30am 29.4 23.3 0.1 15 14.0 WNW 22 30 12 16 1004.1 - 0.0
31/10:00am 29.5 22.6 0.2 15 14.0 NW 26 35 14 19 1004.0 - 0.0
31/09:30am 29.3 21.5 -0.9 14 14.2 WNW 30 43 16 23 1004.2 - 0.0
31/09:00am 28.6 21.2 -0.5 15 13.7 NW 28 37 15 20 1004.3 1004.1 0.0
31/08:30am 27.1 19.9 -1.7 15 13.1 N 26 33 14 18 1004.3 - 0.0
31/08:00am 24.6 17.9 -1.3 18 11.6 N 24 30 13 16 1004.2 - 0.0
31/07:30am 24.2 17.4 -1.6 18 11.5 N 24 37 13 20 1004.2 - 0.0
31/07:00am 21.9 16.9 -1.4 21 10.2 N 15 19 8 10 1004.0 - 0.0
31/06:30am 21.5 16.8 -1.7 21 10.1 NNE 13 17 7 9 1004.0 - 0.0
31/06:00am 21.0 15.4 -2.8 20 10.1 NE 17 22 9 12 1004.0 1003.8 0.0
31/05:30am 21.9 15.9 -2.7 19 10.5 NNE 19 26 10 14 1004.1 - 0.0
31/05:00am 22.2 16.2 -1.8 20 10.5 NNE 20 26 11 14 1004.5 - 0.0
31/04:30am 23.0 16.6 -1.8 19 10.9 NNE 22 30 12 16 1004.7 - 0.0
31/04:00am 23.4 17.4 -1.5 19 11.0 NNE 20 28 11 15 1005.1 - 0.0
31/03:30am 23.3 18.8 -0.2 21 10.7 NE 13 20 7 11 1005.4 - 0.0
31/03:00am 22.7 18.9 1.7 25 9.9 E 11 15 6 8 1005.9 1005.8 0.0
31/02:30am 22.7 18.4 3.3 28 9.4 ENE 15 19 8 10 1006.5 - 0.0
31/02:00am 21.9 17.7 4.0 31 8.7 NE 15 19 8 10 1007.1 - 0.0
31/01:30am 22.0 17.2 4.6 32 8.6 NE 19 24 10 13 1007.5 - 0.0
31/01:00am 21.8 17.0 4.4 32 8.5 NE 19 26 10 14 1008.1 - 0.0
31/12:30am 22.0 18.5 5.4 34 8.3 ENE 13 19 7 10 1008.4 - 0.0
31/12:00am 21.5 18.2 4.6 33 8.3 ENE 11 15 6 8 1008.6 1008.4 0.0
 
Date/Time
CDT
Temp
°C
App
Temp
°C
Dew
Point
Rel
Hum
%
Delta-T
°C
Wind Press
QNH
hPa
Press
MSL
hPa
Rain
since 9 am
mm
Dir
 
Spd
km/h
Gust
km/h
Spd
kts
Gust
kts
30/11:30pm 20.9 18.7 3.6 32 8.3 ENE 4 7 2 4 1008.9 - 0.0
30/11:00pm 21.3 19.4 3.0 30 8.7 E 2 6 1 3 1009.6 - 0.0
30/10:30pm 23.4 19.9 3.4 27 9.7 E 11 15 6 8 1009.7 - 0.0
30/10:00pm 22.7 19.9 3.3 28 9.4 NE 7 9 4 5 1010.0 - 0.0
30/09:30pm 24.7 21.7 3.9 26 10.3 E 9 13 5 7 1009.9 - 0.0
30/09:00pm 25.8 22.6 4.9 26 10.6 E 11 13 6 7 1009.9 1009.7 0.0
30/08:30pm 26.9 23.2 4.6 24 11.3 ESE 13 17 7 9 1009.7 - 0.0
30/08:00pm 28.2 23.5 5.1 23 12.0 ESE 19 28 10 15 1009.6 - 0.0
30/07:30pm 30.6 27.1 -5.8 9 15.8 NNW 4 6 2 3 1009.4 - 0.0
30/07:00pm 31.8 27.7 -6.5 8 16.6 NW 7 9 4 5 1009.3 - 0.0
30/06:30pm 31.9 28.9 -4.9 9 16.4 N 2 7 1 4 1009.3 - 0.0
30/06:00pm 32.2 28.1 -6.2 8 16.9 NE 7 13 4 7 1009.6 1009.4 0.0
30/05:30pm 32.6 28.6 -5.9 8 17.0 E 7 13 4 7 1009.6 - 0.0
30/05:00pm 32.7 28.7 -5.8 8 17.1 ESE 7 13 4 7 1009.7 - 0.0
30/04:30pm 33.5 29.2 -5.2 8 17.4 ESE 9 15 5 8 1009.9 - 0.0
30/04:00pm 34.6 30.9 -4.4 8 17.9 N 6 11 3 6 1010.2 - 0.0
30/03:30pm 33.9 29.2 -4.9 8 17.6 E 11 19 6 10 1010.4 - 0.0
30/03:00pm 33.8 28.3 -5.0 8 17.6 E 15 20 8 11 1011.1 1010.9 0.0
30/02:30pm 32.6 28.4 -4.3 9 16.7 N 9 17 5 9 1011.5 - 0.0
30/02:00pm 32.7 27.7 -4.3 9 16.8 E 13 22 7 12 1012.1 - 0.0
30/01:30pm 32.4 27.8 -4.5 9 16.7 NE 11 19 6 10 1012.8 - 0.0
30/01:00pm 31.7 26.8 -3.6 10 16.1 ENE 13 22 7 12 1013.2 - 0.0
30/12:30pm 30.4 25.8 -1.1 13 14.9 ENE 13 20 7 11 1013.7 - 0.0
30/12:00pm 29.4 24.4 -0.9 14 14.2 ESE 15 20 8 11 1014.1 1013.9 0.0
30/11:30am 28.0 23.7 -2.0 14 13.7 ENE 11 15 6 8 1014.7 - 0.0
30/11:00am 26.3 22.1 -0.7 17 12.4 E 11 17 6 9 1015.2 - 0.0
30/10:30am 25.9 22.5 1.9 21 11.6 E 9 15 5 8 1015.6 - 0.0
30/10:00am 23.2 20.5 7.3 36 8.3 S 11 15 6 8 1015.6 - 0.0
30/09:30am 21.9 19.5 10.1 47 6.4 S 13 17 7 9 1015.9 - 0.0
30/09:00am 21.1 20.0 10.0 49 6.0 ESE 6 9 3 5 1015.6 1015.5 0.0
30/08:30am 17.2 15.4 11.0 67 3.3 NE 11 17 6 9 1015.7 - 0.0
30/08:00am 13.2 11.8 9.6 79 1.8 ENE 7 9 4 5 1015.8 - 0.0
30/07:30am 10.5 8.5 8.6 88 0.9 ENE 9 11 5 6 1016.0 - 0.0
30/07:00am 6.1 3.4 3.9 86 0.9 E 7 9 4 5 1015.9 - 0.0
30/06:30am 6.4 5.3 4.9 90 0.7 CALM 0 0 0 0 1015.8 - 0.0
30/06:00am 6.6 5.1 4.8 88 0.8 ESE 2 7 1 4 1015.5 1015.4 0.0
30/05:30am 8.3 7.1 6.4 88 0.9 SE 2 7 1 4 1015.5 - 0.0
30/05:00am 10.8 9.2 8.6 86 1.1 E 7 9 4 5 1015.2 - 0.0
30/04:30am 11.5 9.7 9.6 88 1.0 E 9 13 5 7 1015.3 - 0.0
30/04:00am 10.7 8.6 8.3 85 1.2 ENE 9 11 5 6 1015.4 - 0.0
30/03:30am 10.6 8.7 7.5 81 1.5 E 7 9 4 5 1015.6 - 0.0
30/03:00am 11.0 9.5 6.6 74 2.1 E 4 7 2 4 1015.9 1015.8 0.0
30/02:30am 11.7 11.1 7.2 74 2.2 CALM 0 0 0 0 1016.2 - 0.0
30/02:00am 12.7 10.9 8.0 73 2.3 SE 7 9 4 5 1016.2 - 0.0
30/01:30am 12.8 11.0 8.1 73 2.3 SE 7 11 4 6 1016.5 - 0.0
30/01:00am 12.4 10.2 7.7 73 2.3 SSE 9 11 5 6 1016.9 - 0.0
30/12:30am 12.9 11.3 7.8 71 2.5 SSE 6 7 3 4 1017.2 - 0.0
30/12:00am 13.1 11.1 7.1 67 2.9 S 7 7 4 4 1017.6 1017.5 0.0
 
Date/Time
CDT
Temp
°C
App
Temp
°C
Dew
Point
Rel
Hum
%
Delta-T
°C
Wind Press
QNH
hPa
Press
MSL
hPa
Rain
since 9 am
mm
Dir
 
Spd
km/h
Gust
km/h
Spd
kts
Gust
kts
29/11:30pm 13.4 11.5 7.6 68 2.9 SSE 7 11 4 6 1017.5 - 0.0
29/11:00pm 14.1 11.0 7.2 63 3.4 S 13 15 7 8 1018.0 - 0.0
29/10:30pm 15.0 11.7 6.3 56 4.2 S 13 17 7 9 1017.9 - 0.0
29/10:00pm 16.0 13.5 4.7 47 5.3 S 7 9 4 5 1017.6 - 0.0
29/09:30pm 16.6 14.0 4.3 44 5.8 SSE 7 9 4 5 1017.6 - 0.0
29/09:00pm 17.1 13.9 3.1 39 6.4 SSW 9 13 5 7 1017.2 1017.1 0.0
29/08:30pm 18.9 16.0 2.7 34 7.5 SSW 7 9 4 5 1016.8 - 0.0
29/08:00pm 20.7 16.7 3.0 31 8.4 SSW 13 15 7 8 1016.5 - 0.0
29/07:30pm 22.1 16.9 3.3 29 9.0 SSW 20 28 11 15 1016.5 - 0.0
29/07:00pm 24.5 18.0 2.6 24 10.6 SSW 26 33 14 18 1016.2 - 0.0
29/06:30pm 25.0 18.6 3.0 24 10.7 SW 26 35 14 19 1016.1 - 0.0
29/06:00pm 25.5 17.9 2.9 23 11.0 SW 32 41 17 22 1015.8 1015.7 0.0
29/05:30pm 27.8 20.3 3.5 21 12.2 SW 32 44 17 24 1015.5 - 0.0
29/05:00pm 28.3 20.6 3.2 20 12.6 SW 33 43 18 23 1015.4 - 0.0
29/04:30pm 29.5 22.2 2.7 18 13.4 W 30 39 16 21 1015.1 - 0.0
29/04:00pm 30.4 23.6 0.9 15 14.4 W 26 39 14 21 1015.2 - 0.0
29/03:30pm 30.7 23.8 0.2 14 14.7 WNW 26 37 14 20 1015.3 - 0.0
29/03:00pm 30.1 23.6 0.6 15 14.3 W 24 41 13 22 1015.6 1015.5 0.0
29/02:30pm 30.8 25.2 1.2 15 14.6 W 20 30 11 16 1016.0 - 0.0
29/02:00pm 29.4 22.2 1.0 16 13.8 WNW 28 43 15 23 1016.3 - 0.0
29/01:30pm 29.5 23.4 0.2 15 14.0 W 22 37 12 20 1016.6 - 0.0
29/01:00pm 29.5 23.6 1.9 17 13.6 WNW 22 33 12 18 1017.1 - 0.0
29/12:30pm 28.2 22.3 1.7 18 12.9 WNW 22 32 12 17 1017.5 - 0.0
29/12:00pm 26.9 22.0 2.1 20 12.0 W 17 28 9 15 1017.8 1017.7 0.0
29/11:30am 25.6 21.3 3.5 24 10.9 WNW 15 22 8 12 1018.3 - 0.0
29/11:00am 24.9 21.0 3.5 25 10.5 NW 13 19 7 10 1018.7 - 0.0
29/10:30am 23.2 19.8 4.2 29 9.4 N 11 20 6 11 1018.8 - 0.0
29/10:00am 22.0 18.9 7.4 39 7.6 N 13 17 7 9 1019.0 - 0.0

Other Formats:

Comma delimited format used in spreadsheet applications
http://www.bom.gov.au/fwo/IDS60801/IDS60801.95654.axf

JavaScript Object Notation format (JSON) in row-major order
http://www.bom.gov.au/fwo/IDS60801/IDS60801.95654.json